createdAt,value
2019-03-24T00:02:25.290Z,6.70
2019-03-24T00:04:52.077Z,6.70
2019-03-24T00:07:18.928Z,6.70
2019-03-24T00:09:45.709Z,6.60
2019-03-24T00:12:12.540Z,6.50
2019-03-24T00:14:39.330Z,6.50
2019-03-24T00:17:06.369Z,6.50
2019-03-24T00:19:33.153Z,6.50
2019-03-24T00:21:59.990Z,6.50
2019-03-24T00:24:26.830Z,6.30
2019-03-24T00:26:53.608Z,6.20
2019-03-24T00:29:20.397Z,6.00
2019-03-24T00:31:47.363Z,6.00
2019-03-24T00:34:14.263Z,6.00
2019-03-24T00:36:41.153Z,6.10
2019-03-24T00:39:08.108Z,6.10
2019-03-24T00:41:34.980Z,6.10
2019-03-24T00:44:01.970Z,6.00
2019-03-24T00:46:28.853Z,6.00
2019-03-24T00:48:55.780Z,6.10
2019-03-24T00:51:22.644Z,6.00
2019-03-24T00:53:49.588Z,5.80
2019-03-24T00:56:16.569Z,5.70
2019-03-24T00:58:43.445Z,5.70
2019-03-24T01:01:10.711Z,5.80
2019-03-24T01:03:37.601Z,5.80
2019-03-24T01:06:04.356Z,5.70
2019-03-24T01:08:31.140Z,5.80
2019-03-24T01:10:57.986Z,5.80
2019-03-24T01:13:24.779Z,5.60
2019-03-24T01:15:51.617Z,5.70
2019-03-24T01:18:18.492Z,5.70
2019-03-24T01:20:45.288Z,5.80
2019-03-24T01:23:12.077Z,5.80
2019-03-24T01:25:38.917Z,5.80
2019-03-24T01:28:05.751Z,5.90
2019-03-24T01:30:32.544Z,5.90
2019-03-24T01:32:59.373Z,5.90
2019-03-24T01:35:26.200Z,5.90
2019-03-24T01:37:53.092Z,5.70
2019-03-24T01:40:19.927Z,5.60
2019-03-24T01:42:46.763Z,5.50
2019-03-24T01:45:13.545Z,5.40
2019-03-24T01:47:40.387Z,5.50
2019-03-24T01:50:07.365Z,5.50
2019-03-24T01:52:34.198Z,5.50
2019-03-24T01:55:01.029Z,5.50
2019-03-24T01:57:27.876Z,5.50
2019-03-24T01:59:54.660Z,5.50
2019-03-24T02:02:21.504Z,5.40
2019-03-24T02:04:48.375Z,5.50
2019-03-24T02:07:15.186Z,5.50
2019-03-24T02:09:42.014Z,5.50
2019-03-24T02:12:08.793Z,5.60
2019-03-24T02:14:35.628Z,5.50
2019-03-24T02:17:02.416Z,5.50
2019-03-24T02:19:29.253Z,5.40
2019-03-24T02:21:56.038Z,5.50
2019-03-24T02:24:22.879Z,5.40
2019-03-24T02:26:49.716Z,5.40
2019-03-24T02:29:16.501Z,5.40
2019-03-24T02:31:43.342Z,5.30
2019-03-24T02:34:10.122Z,5.20
2019-03-24T02:36:36.958Z,5.20
2019-03-24T02:39:06.093Z,5.20
2019-03-24T02:41:32.919Z,5.30
2019-03-24T02:43:59.765Z,5.20
2019-03-24T02:46:26.601Z,5.00
2019-03-24T02:48:53.385Z,4.90
2019-03-24T02:51:20.273Z,4.90
2019-03-24T02:53:47.162Z,5.00
2019-03-24T02:56:13.953Z,5.00
2019-03-24T02:58:40.786Z,5.00
2019-03-24T03:01:07.567Z,5.00
2019-03-24T03:03:34.357Z,5.00
2019-03-24T03:06:01.221Z,5.00
2019-03-24T03:08:29.940Z,4.90
2019-03-24T03:10:56.856Z,4.70
2019-03-24T03:13:23.691Z,4.50
2019-03-24T03:15:50.529Z,4.40
2019-03-24T03:18:17.308Z,4.20
2019-03-24T03:20:44.153Z,4.20
2019-03-24T03:23:10.932Z,4.30
2019-03-24T03:25:37.780Z,4.30
2019-03-24T03:28:04.616Z,4.10
2019-03-24T03:30:31.381Z,4.00
2019-03-24T03:32:58.194Z,4.00
2019-03-24T03:35:25.011Z,3.90
2019-03-24T03:37:51.791Z,3.80
2019-03-24T03:40:18.640Z,4.00
2019-03-24T03:42:45.507Z,3.90
2019-03-24T03:45:15.894Z,3.90
2019-03-24T03:47:42.729Z,3.90
2019-03-24T03:50:09.621Z,3.90
2019-03-24T03:52:36.454Z,3.70
2019-03-24T03:55:04.987Z,3.70
2019-03-24T03:57:31.817Z,3.70
2019-03-24T03:59:58.581Z,3.50
2019-03-24T04:02:25.937Z,3.60
2019-03-24T04:04:52.818Z,3.70
2019-03-24T04:07:19.654Z,3.70
2019-03-24T04:09:46.481Z,3.80
2019-03-24T04:12:14.373Z,3.90
2019-03-24T04:14:41.221Z,4.10
2019-03-24T04:17:08.226Z,4.20
2019-03-24T04:19:35.189Z,3.90
2019-03-24T04:22:01.978Z,4.00
2019-03-24T04:24:28.820Z,3.90
2019-03-24T04:26:55.602Z,3.90
2019-03-24T04:29:22.487Z,4.00
2019-03-24T04:31:49.243Z,3.70
2019-03-24T04:34:16.085Z,3.70
2019-03-24T04:36:42.869Z,3.80
2019-03-24T04:39:09.764Z,3.80
2019-03-24T04:41:36.540Z,3.70
2019-03-24T04:44:03.588Z,3.60
2019-03-24T04:46:30.421Z,3.60
2019-03-24T04:48:57.214Z,3.60
2019-03-24T04:51:24.049Z,3.60
2019-03-24T04:53:50.857Z,3.60
2019-03-24T04:56:17.673Z,3.50
2019-03-24T04:58:44.458Z,3.50
2019-03-24T05:01:11.289Z,3.50
2019-03-24T05:03:38.077Z,3.40
2019-03-24T05:06:05.037Z,3.40
2019-03-24T05:08:32.673Z,3.50
2019-03-24T05:10:59.457Z,3.50
2019-03-24T05:13:26.297Z,3.60
2019-03-24T05:15:53.405Z,3.60
2019-03-24T05:18:20.190Z,3.50
2019-03-24T05:20:47.053Z,3.50
2019-03-24T05:23:13.913Z,3.60
2019-03-24T05:25:40.692Z,3.60
2019-03-24T05:28:07.521Z,3.60
2019-03-24T05:30:34.316Z,3.70
2019-03-24T05:33:01.161Z,3.70
2019-03-24T05:35:27.992Z,3.70
2019-03-24T05:37:54.842Z,3.80
2019-03-24T05:40:21.680Z,3.90
2019-03-24T05:42:48.464Z,3.70
2019-03-24T05:45:15.308Z,3.80
2019-03-24T05:47:42.152Z,4.10
2019-03-24T05:50:09.030Z,4.30
2019-03-24T05:52:35.873Z,4.40
2019-03-24T05:55:04.074Z,4.60
2019-03-24T05:57:30.905Z,4.40
2019-03-24T05:59:57.809Z,4.50
2019-03-24T06:02:24.653Z,4.80
2019-03-24T06:04:51.493Z,5.00
2019-03-24T06:07:18.317Z,5.10
2019-03-24T06:09:45.156Z,5.30
2019-03-24T06:12:11.946Z,5.50
2019-03-24T06:14:38.740Z,5.50
2019-03-24T06:17:05.586Z,5.80
2019-03-24T06:19:32.372Z,6.00
2019-03-24T06:21:59.212Z,6.30
2019-03-24T06:24:26.012Z,6.40
2019-03-24T06:26:52.845Z,6.60
2019-03-24T06:29:19.688Z,7.00
2019-03-24T06:31:46.491Z,7.10
2019-03-24T06:34:13.349Z,7.00
2019-03-24T06:36:40.217Z,7.10
2019-03-24T06:39:07.369Z,7.40
2019-03-24T06:41:34.196Z,7.30
2019-03-24T06:44:01.036Z,7.40
2019-03-24T06:46:27.822Z,7.70
2019-03-24T06:48:54.678Z,7.70
2019-03-24T06:51:21.465Z,7.70
2019-03-24T06:53:48.256Z,7.80
2019-03-24T06:56:15.108Z,8.10
2019-03-24T06:58:41.902Z,8.30
2019-03-24T07:01:08.696Z,8.70
2019-03-24T07:03:35.538Z,8.90
2019-03-24T07:06:02.386Z,9.00
2019-03-24T07:08:29.356Z,9.00
2019-03-24T07:10:57.293Z,9.10
2019-03-24T07:13:24.162Z,9.20
2019-03-24T07:15:51.237Z,9.40
2019-03-24T07:18:18.229Z,9.60
2019-03-24T07:20:45.150Z,9.70
2019-03-24T07:23:12.088Z,9.90
2019-03-24T07:25:39.068Z,9.80
2019-03-24T07:28:07.070Z,9.50
2019-03-24T07:30:34.033Z,9.60
2019-03-24T07:33:00.896Z,9.70
2019-03-24T07:35:27.817Z,9.90
2019-03-24T07:37:54.792Z,10.20
2019-03-24T07:40:21.848Z,10.60
2019-03-24T07:42:48.662Z,10.80
2019-03-24T07:45:15.457Z,11.00
2019-03-24T07:47:42.304Z,11.20
2019-03-24T07:50:09.712Z,11.40
2019-03-24T07:52:36.497Z,11.60
2019-03-24T07:55:05.428Z,11.80
2019-03-24T07:57:32.212Z,11.90
2019-03-24T07:59:59.057Z,12.20
2019-03-24T08:02:25.853Z,12.10
2019-03-24T08:04:52.701Z,12.00
2019-03-24T08:07:19.535Z,12.10
2019-03-24T08:09:46.360Z,12.30
2019-03-24T08:12:13.148Z,12.50
2019-03-24T08:14:39.998Z,12.60
2019-03-24T08:17:06.784Z,12.80
2019-03-24T08:19:33.624Z,12.90
2019-03-24T08:22:00.709Z,12.90
2019-03-24T08:24:27.621Z,13.00
2019-03-24T08:26:54.460Z,13.00
2019-03-24T08:29:21.245Z,13.20
2019-03-24T08:31:48.090Z,13.30
2019-03-24T08:34:14.936Z,13.40
2019-03-24T08:36:41.728Z,13.40
2019-03-24T08:39:08.617Z,13.40
2019-03-24T08:41:35.521Z,13.50
2019-03-24T08:44:02.345Z,13.60
2019-03-24T08:46:29.248Z,13.90
2019-03-24T08:48:56.087Z,14.00
2019-03-24T08:51:22.885Z,14.10
2019-03-24T08:53:49.681Z,14.00
2019-03-24T08:56:16.529Z,14.10
2019-03-24T08:58:43.329Z,14.10
2019-03-24T09:01:10.197Z,14.30
2019-03-24T09:03:37.032Z,14.30
2019-03-24T09:06:03.873Z,14.20
2019-03-24T09:08:30.685Z,14.20
2019-03-24T09:10:57.528Z,14.20
2019-03-24T09:13:24.385Z,14.30
2019-03-24T09:15:51.250Z,14.30
2019-03-24T09:18:18.077Z,14.20
2019-03-24T09:20:44.947Z,14.40
2019-03-24T09:23:11.772Z,14.30
2019-03-24T09:25:38.548Z,14.30
2019-03-24T09:28:05.420Z,14.70
2019-03-24T09:30:33.965Z,14.60
2019-03-24T09:33:00.801Z,14.60
2019-03-24T09:35:27.582Z,14.50
2019-03-24T09:37:54.513Z,14.60
2019-03-24T09:40:33.897Z,14.50
2019-03-24T09:43:01.429Z,14.60
2019-03-24T09:45:30.373Z,14.70
2019-03-24T09:47:57.212Z,14.80
2019-03-24T09:50:24.048Z,14.80
2019-03-24T09:52:50.831Z,15.00
2019-03-24T09:55:17.773Z,14.90
2019-03-24T09:57:44.611Z,15.00
2019-03-24T10:00:11.393Z,14.90
2019-03-24T10:02:38.271Z,15.00
2019-03-24T10:05:05.159Z,15.10
2019-03-24T10:07:32.008Z,15.30
2019-03-24T10:09:58.793Z,15.30
2019-03-24T10:12:25.648Z,15.20
2019-03-24T10:14:52.429Z,15.20
2019-03-24T10:17:19.217Z,15.10
2019-03-24T10:19:46.046Z,15.20
2019-03-24T10:22:12.828Z,15.20
2019-03-24T10:24:39.724Z,15.30
2019-03-24T10:27:06.500Z,15.40
2019-03-24T10:29:33.335Z,15.50
2019-03-24T10:32:00.185Z,15.50
2019-03-24T10:34:26.969Z,15.70
2019-03-24T10:36:53.745Z,15.80
2019-03-24T10:39:20.588Z,15.80
2019-03-24T10:41:47.470Z,15.70
2019-03-24T10:44:14.309Z,15.80
2019-03-24T10:46:41.092Z,15.90
2019-03-24T10:49:07.928Z,15.90
2019-03-24T10:51:34.761Z,15.90
2019-03-24T10:54:01.558Z,16.10
2019-03-24T10:56:28.397Z,16.30
2019-03-24T10:58:55.236Z,16.40
2019-03-24T11:01:22.013Z,16.60
2019-03-24T11:03:48.854Z,16.50
2019-03-24T11:06:15.683Z,16.20
2019-03-24T11:08:42.508Z,16.50
2019-03-24T11:11:09.292Z,16.70
2019-03-24T11:13:36.187Z,16.80
2019-03-24T11:16:03.002Z,16.90
2019-03-24T11:18:29.848Z,16.80
2019-03-24T11:20:56.624Z,16.80
2019-03-24T11:23:23.590Z,16.90
2019-03-24T11:25:50.374Z,16.70
2019-03-24T11:28:19.152Z,16.80
2019-03-24T11:30:45.816Z,17.10
2019-03-24T11:33:12.629Z,17.00
2019-03-24T11:35:39.465Z,17.10
2019-03-24T11:38:06.441Z,17.20
2019-03-24T11:40:33.252Z,17.30
2019-03-24T11:43:00.084Z,17.40
2019-03-24T11:45:26.869Z,17.40
2019-03-24T11:47:53.703Z,17.40
2019-03-24T11:50:20.495Z,17.60
2019-03-24T11:52:48.536Z,17.60
2019-03-24T11:55:15.322Z,17.50
2019-03-24T11:57:42.154Z,17.60
2019-03-24T12:00:12.053Z,17.70
2019-03-24T12:02:38.949Z,17.90
2019-03-24T12:05:06.599Z,18.00
2019-03-24T12:07:33.485Z,17.90
2019-03-24T12:10:00.362Z,18.00
2019-03-24T12:12:27.143Z,18.30
2019-03-24T12:14:53.988Z,18.40
2019-03-24T12:17:20.778Z,18.20
2019-03-24T12:19:56.474Z,18.00
2019-03-24T12:22:17.317Z,17.90
2019-03-24T12:24:44.161Z,18.00
2019-03-24T12:27:10.944Z,17.80
2019-03-24T12:29:37.791Z,17.60
2019-03-24T12:32:04.581Z,17.40
2019-03-24T12:34:31.412Z,17.60
2019-03-24T12:36:58.253Z,17.60
2019-03-24T12:39:25.137Z,17.60
2019-03-24T12:41:51.973Z,17.60
2019-03-24T12:44:18.767Z,17.50
2019-03-24T12:46:45.602Z,17.80
2019-03-24T12:49:12.588Z,18.00
2019-03-24T12:51:39.373Z,18.20
2019-03-24T12:54:06.164Z,18.10
2019-03-24T12:56:33.012Z,18.40
2019-03-24T12:58:59.897Z,18.70
2019-03-24T13:01:26.943Z,18.70
2019-03-24T13:03:53.763Z,18.60
2019-03-24T13:06:20.601Z,18.30
2019-03-24T13:08:47.538Z,18.30
2019-03-24T13:11:14.328Z,18.10
2019-03-24T13:13:41.229Z,18.20
2019-03-24T13:16:08.104Z,18.60
2019-03-24T13:18:34.948Z,18.70
2019-03-24T13:21:01.733Z,18.40
2019-03-24T13:23:28.529Z,17.90
2019-03-24T13:25:55.361Z,18.00
2019-03-24T13:28:22.281Z,17.90
2019-03-24T13:30:49.148Z,17.90
2019-03-24T13:33:16.195Z,18.10
2019-03-24T13:35:43.139Z,18.30
2019-03-24T13:38:10.186Z,18.50
2019-03-24T13:40:37.132Z,18.50
2019-03-24T13:43:04.020Z,18.40
2019-03-24T13:45:30.800Z,18.60
2019-03-24T13:47:57.699Z,18.70
2019-03-24T13:50:31.343Z,19.10
2019-03-24T13:52:53.141Z,19.10
2019-03-24T13:55:19.929Z,19.20
2019-03-24T13:57:46.761Z,18.60
2019-03-24T14:00:14.649Z,18.70
2019-03-24T14:02:41.493Z,18.80
2019-03-24T14:05:08.351Z,18.70
2019-03-24T14:07:35.258Z,18.60
2019-03-24T14:10:03.536Z,18.50
2019-03-24T14:12:30.353Z,18.40
2019-03-24T14:14:57.318Z,18.30
2019-03-24T14:17:24.366Z,18.40
2019-03-24T14:19:51.189Z,18.70
2019-03-24T14:22:19.277Z,18.90
2019-03-24T14:24:46.323Z,19.00
2019-03-24T14:27:13.268Z,18.90
2019-03-24T14:29:40.315Z,19.00
2019-03-24T14:32:07.260Z,18.70
2019-03-24T14:34:34.237Z,18.70
2019-03-24T14:37:01.148Z,18.70
2019-03-24T14:39:28.197Z,18.70
2019-03-24T14:41:55.139Z,18.60
2019-03-24T14:44:22.082Z,18.60
2019-03-24T14:46:49.129Z,18.70
2019-03-24T14:49:16.178Z,18.60
2019-03-24T14:51:43.223Z,18.60
2019-03-24T14:54:10.171Z,18.50
2019-03-24T14:56:37.214Z,18.60
2019-03-24T14:59:04.158Z,18.70
2019-03-24T15:01:31.102Z,18.70
2019-03-24T15:03:58.149Z,18.70
2019-03-24T15:06:25.093Z,18.70
2019-03-24T15:08:52.037Z,18.60
2019-03-24T15:11:19.086Z,18.40
2019-03-24T15:13:45.816Z,18.30
2019-03-24T15:16:12.768Z,18.30
2019-03-24T15:18:39.713Z,18.10
2019-03-24T15:21:06.659Z,18.00
2019-03-24T15:23:34.148Z,17.90
2019-03-24T15:26:00.945Z,17.80
2019-03-24T15:28:27.729Z,17.90
2019-03-24T15:30:54.569Z,17.90
2019-03-24T15:33:21.358Z,17.80
2019-03-24T15:35:48.255Z,17.70
2019-03-24T15:38:15.042Z,17.80
2019-03-24T15:40:42.005Z,17.50
2019-03-24T15:43:08.881Z,17.00
2019-03-24T15:45:36.218Z,16.80
2019-03-24T15:48:03.149Z,16.70
2019-03-24T15:50:29.933Z,16.60
2019-03-24T15:52:56.776Z,16.60
2019-03-24T15:55:23.561Z,16.80
2019-03-24T15:57:50.410Z,16.90
2019-03-24T16:00:20.809Z,16.90
2019-03-24T16:02:47.594Z,16.90
2019-03-24T16:05:14.443Z,16.80
2019-03-24T16:07:41.228Z,16.60
2019-03-24T16:10:08.380Z,16.70
2019-03-24T16:12:35.268Z,16.50
2019-03-24T16:15:03.856Z,16.50
2019-03-24T16:17:30.700Z,16.50
2019-03-24T16:19:57.485Z,16.40
2019-03-24T16:22:24.280Z,16.50
2019-03-24T16:24:51.173Z,16.40
2019-03-24T16:27:18.020Z,16.40
2019-03-24T16:29:44.857Z,16.20
2019-03-24T16:32:11.641Z,16.20
2019-03-24T16:34:38.490Z,16.00
2019-03-24T16:37:05.268Z,16.00
2019-03-24T16:39:32.116Z,16.00
2019-03-24T16:41:58.909Z,15.90
2019-03-24T16:44:25.692Z,15.70
2019-03-24T16:46:52.695Z,15.60
2019-03-24T16:49:19.876Z,15.60
2019-03-24T16:51:46.717Z,15.60
2019-03-24T16:54:13.552Z,15.60
2019-03-24T16:56:40.380Z,15.60
2019-03-24T16:59:07.217Z,15.50
2019-03-24T17:01:34.003Z,15.40
2019-03-24T17:04:01.345Z,15.20
2019-03-24T17:06:28.187Z,15.10
2019-03-24T17:08:54.960Z,15.00
2019-03-24T17:11:22.099Z,14.90
2019-03-24T17:13:48.885Z,14.80
2019-03-24T17:16:15.744Z,14.70
2019-03-24T17:18:42.525Z,14.60
2019-03-24T17:21:09.376Z,14.50
2019-03-24T17:23:36.152Z,14.50
2019-03-24T17:26:03.433Z,14.40
2019-03-24T17:28:30.564Z,14.40
2019-03-24T17:30:57.343Z,14.30
2019-03-24T17:33:24.197Z,14.20
2019-03-24T17:35:51.073Z,14.20
2019-03-24T17:38:17.914Z,14.10
2019-03-24T17:40:44.755Z,14.00
2019-03-24T17:43:11.616Z,13.90
2019-03-24T17:45:38.452Z,13.80
2019-03-24T17:48:05.275Z,13.80
2019-03-24T17:50:32.101Z,13.80
2019-03-24T17:52:58.931Z,13.70
2019-03-24T17:55:27.909Z,13.60
2019-03-24T17:57:54.369Z,13.70
2019-03-24T18:00:37.096Z,13.90
2019-03-24T18:03:03.938Z,13.90
2019-03-24T18:05:30.725Z,13.80
2019-03-24T18:07:57.557Z,13.70
2019-03-24T18:10:24.353Z,13.70
2019-03-24T18:12:51.184Z,13.60
2019-03-24T18:15:18.180Z,13.60
2019-03-24T18:17:45.359Z,13.60
2019-03-24T18:20:17.188Z,13.60
2019-03-24T18:22:44.011Z,13.60
2019-03-24T18:25:10.861Z,13.50
2019-03-24T18:27:37.695Z,13.30
2019-03-24T18:30:10.073Z,13.30
2019-03-24T18:32:36.898Z,13.20
2019-03-24T18:35:06.740Z,13.10
2019-03-24T18:37:33.524Z,13.10
2019-03-24T18:40:00.857Z,13.10
2019-03-24T18:42:29.450Z,13.00
2019-03-24T18:44:56.232Z,12.90
2019-03-24T18:47:23.270Z,12.80
2019-03-24T18:49:50.132Z,12.80
2019-03-24T18:52:22.573Z,12.70
2019-03-24T18:54:45.583Z,12.70
2019-03-24T18:57:12.492Z,12.60
2019-03-24T18:59:39.277Z,12.50
2019-03-24T19:02:06.168Z,12.60
2019-03-24T19:04:33.036Z,12.50
2019-03-24T19:06:59.824Z,12.30
2019-03-24T19:09:26.656Z,12.20
2019-03-24T19:11:53.496Z,12.40
2019-03-24T19:14:20.342Z,12.30
2019-03-24T19:16:47.132Z,12.40
2019-03-24T19:19:14.060Z,12.20
2019-03-24T19:21:40.845Z,12.30
2019-03-24T19:24:07.680Z,12.20
2019-03-24T19:26:34.532Z,12.30
2019-03-24T19:29:01.312Z,12.30
2019-03-24T19:31:28.196Z,12.30
2019-03-24T19:33:55.431Z,12.30
2019-03-24T19:36:22.220Z,12.20
2019-03-24T19:38:49.049Z,12.20
2019-03-24T19:41:16.231Z,12.10
2019-03-24T19:43:43.042Z,12.20
2019-03-24T19:46:09.836Z,12.10
2019-03-24T19:48:36.673Z,12.10
2019-03-24T19:51:03.591Z,12.10
2019-03-24T19:53:30.410Z,12.10
2019-03-24T19:55:58.224Z,12.10
2019-03-24T19:58:25.072Z,12.00
2019-03-24T20:00:51.857Z,11.90
2019-03-24T20:03:20.449Z,12.00
2019-03-24T20:05:47.298Z,12.00
2019-03-24T20:08:16.238Z,11.70
2019-03-24T20:10:43.118Z,11.60
2019-03-24T20:13:11.760Z,11.60
2019-03-24T20:15:38.544Z,11.60
2019-03-24T20:18:05.405Z,11.60
2019-03-24T20:20:32.189Z,11.60
2019-03-24T20:22:58.977Z,11.60
2019-03-24T20:25:27.630Z,11.70
2019-03-24T20:27:54.904Z,11.60
2019-03-24T20:30:24.397Z,11.50
2019-03-24T20:32:53.248Z,11.50
2019-03-24T20:35:20.211Z,11.40
2019-03-24T20:37:47.121Z,11.40
2019-03-24T20:40:14.162Z,11.40
2019-03-24T20:42:41.006Z,11.20
2019-03-24T20:45:08.495Z,11.10
2019-03-24T20:47:40.275Z,11.00
2019-03-24T20:50:08.113Z,10.90
2019-03-24T20:52:34.904Z,10.90
2019-03-24T20:55:01.999Z,10.90
2019-03-24T20:57:28.842Z,10.80
2019-03-24T20:59:55.680Z,10.70
2019-03-24T21:02:22.469Z,10.60
2019-03-24T21:04:49.317Z,10.50
2019-03-24T21:07:16.152Z,10.50
2019-03-24T21:09:42.957Z,10.40
2019-03-24T21:12:09.797Z,10.40
2019-03-24T21:14:36.625Z,10.30
2019-03-24T21:17:04.970Z,10.30
2019-03-24T21:19:31.765Z,10.30
2019-03-24T21:21:58.725Z,10.30
2019-03-24T21:24:25.518Z,10.20
2019-03-24T21:26:52.321Z,10.20
2019-03-24T21:29:19.165Z,10.20
2019-03-24T21:31:46.006Z,10.10
2019-03-24T21:34:12.897Z,10.10
2019-03-24T21:36:39.745Z,10.20
2019-03-24T21:39:06.942Z,10.10
2019-03-24T21:41:33.949Z,10.10
2019-03-24T21:44:00.784Z,10.10
2019-03-24T21:46:27.744Z,10.10
2019-03-24T21:48:54.617Z,10.10
2019-03-24T21:51:21.554Z,10.10
2019-03-24T21:53:48.393Z,10.00
2019-03-24T21:56:15.274Z,9.90
2019-03-24T21:58:42.124Z,9.90
2019-03-24T22:01:08.962Z,9.80
2019-03-24T22:03:35.749Z,9.80
2019-03-24T22:06:02.591Z,9.70
2019-03-24T22:08:29.944Z,9.60
2019-03-24T22:10:56.861Z,9.60
2019-03-24T22:13:23.653Z,9.50
2019-03-24T22:15:50.445Z,9.50
2019-03-24T22:18:17.297Z,9.50
2019-03-24T22:20:48.960Z,9.40
2019-03-24T22:23:12.777Z,9.40
2019-03-24T22:25:39.608Z,9.30
2019-03-24T22:28:06.402Z,9.30
2019-03-24T22:30:33.192Z,9.30
2019-03-24T22:33:00.028Z,9.30
2019-03-24T22:35:26.816Z,9.20
2019-03-24T22:37:53.678Z,9.20
2019-03-24T22:40:20.477Z,9.20
2019-03-24T22:42:47.516Z,9.20
2019-03-24T22:45:14.417Z,9.20
2019-03-24T22:47:41.302Z,9.20
2019-03-24T22:50:08.241Z,9.10
2019-03-24T22:52:35.069Z,9.10
2019-03-24T22:55:01.925Z,9.00
2019-03-24T22:57:28.709Z,9.00
2019-03-24T22:59:55.558Z,9.00
2019-03-24T23:02:22.342Z,9.10
2019-03-24T23:04:49.181Z,9.00
2019-03-24T23:07:15.973Z,9.00
2019-03-24T23:09:42.809Z,9.00
2019-03-24T23:12:09.602Z,9.20
2019-03-24T23:14:36.517Z,9.10
2019-03-24T23:17:03.371Z,8.80
2019-03-24T23:19:30.205Z,8.80
2019-03-24T23:21:57.002Z,8.80
2019-03-24T23:24:23.849Z,8.80
2019-03-24T23:26:50.633Z,8.90
2019-03-24T23:29:17.475Z,9.00
2019-03-24T23:31:45.121Z,9.00
2019-03-24T23:34:11.968Z,9.00
2019-03-24T23:36:38.813Z,9.10
2019-03-24T23:39:06.005Z,9.20
2019-03-24T23:41:32.849Z,9.20
2019-03-24T23:43:59.642Z,9.20
2019-03-24T23:46:26.504Z,9.10
2019-03-24T23:48:53.345Z,9.10
2019-03-24T23:51:20.136Z,9.00
2019-03-24T23:53:46.994Z,8.90
2019-03-24T23:56:13.790Z,8.80
2019-03-24T23:58:41.352Z,8.70
